sensor_id;sensor_type;location;lat;lon;timestamp;temperature;humidity
18047;DHT22;9148;51.454;13.862;2022-09-09T00:00:25;13.80;99.90
18047;DHT22;9148;51.454;13.862;2022-09-09T00:03:01;13.70;99.90
18047;DHT22;9148;51.454;13.862;2022-09-09T00:08:42;13.60;99.90
18047;DHT22;9148;51.454;13.862;2022-09-09T00:11:19;13.50;99.90
18047;DHT22;9148;51.454;13.862;2022-09-09T00:17:07;13.40;99.90
18047;DHT22;9148;51.454;13.862;2022-09-09T00:22:23;13.50;99.90
18047;DHT22;9148;51.454;13.862;2022-09-09T00:24:52;13.20;99.90
18047;DHT22;9148;51.454;13.862;2022-09-09T00:27:33;13.20;99.90
18047;DHT22;9148;51.454;13.862;2022-09-09T00:32:46;13.10;99.90
18047;DHT22;9148;51.454;13.862;2022-09-09T00:35:32;13.00;99.90
18047;DHT22;9148;51.454;13.862;2022-09-09T00:38:14;13.00;99.90
18047;DHT22;9148;51.454;13.862;2022-09-09T00:40:51;13.20;99.90
18047;DHT22;9148;51.454;13.862;2022-09-09T00:43:28;12.90;99.90
18047;DHT22;9148;51.454;13.862;2022-09-09T00:46:03;12.80;99.90
18047;DHT22;9148;51.454;13.862;2022-09-09T00:51:24;12.70;99.90
18047;DHT22;9148;51.454;13.862;2022-09-09T00:57:33;12.60;99.90
18047;DHT22;9148;51.454;13.862;2022-09-09T01:00:18;12.50;99.90
18047;DHT22;9148;51.454;13.862;2022-09-09T01:02:57;12.50;99.90
18047;DHT22;9148;51.454;13.862;2022-09-09T01:06:02;12.50;99.90
18047;DHT22;9148;51.454;13.862;2022-09-09T01:14:40;12.40;99.90
18047;DHT22;9148;51.454;13.862;2022-09-09T01:17:30;12.30;99.90
18047;DHT22;9148;51.454;13.862;2022-09-09T01:20:04;12.30;99.90
18047;DHT22;9148;51.454;13.862;2022-09-09T01:26:03;12.20;99.90
18047;DHT22;9148;51.454;13.862;2022-09-09T01:28:34;12.20;99.90
18047;DHT22;9148;51.454;13.862;2022-09-09T01:31:04;12.20;99.90
18047;DHT22;9148;51.454;13.862;2022-09-09T01:33:31;12.10;99.90
18047;DHT22;9148;51.454;13.862;2022-09-09T01:38:53;12.10;99.90
18047;DHT22;9148;51.454;13.862;2022-09-09T01:41:19;12.10;99.90
18047;DHT22;9148;51.454;13.862;2022-09-09T01:43:45;12.10;99.90
18047;DHT22;9148;51.454;13.862;2022-09-09T01:46:12;12.10;99.90
18047;DHT22;9148;51.454;13.862;2022-09-09T01:48:38;12.00;99.90
18047;DHT22;9148;51.454;13.862;2022-09-09T01:51:04;12.00;99.90
18047;DHT22;9148;51.454;13.862;2022-09-09T01:53:30;12.00;99.90
18047;DHT22;9148;51.454;13.862;2022-09-09T01:59:13;11.90;99.90
18047;DHT22;9148;51.454;13.862;2022-09-09T02:02:19;11.90;99.90
18047;DHT22;9148;51.454;13.862;2022-09-09T02:04:52;11.90;99.90
18047;DHT22;9148;51.454;13.862;2022-09-09T02:07:40;11.80;99.90
18047;DHT22;9148;51.454;13.862;2022-09-09T02:12:47;11.80;99.90
18047;DHT22;9148;51.454;13.862;2022-09-09T02:15:24;11.80;99.90
18047;DHT22;9148;51.454;13.862;2022-09-09T02:17:57;11.80;99.90
18047;DHT22;9148;51.454;13.862;2022-09-09T02:20:24;11.70;99.90
18047;DHT22;9148;51.454;13.862;2022-09-09T02:22:53;11.70;99.90
18047;DHT22;9148;51.454;13.862;2022-09-09T02:25:22;11.70;99.90
18047;DHT22;9148;51.454;13.862;2022-09-09T02:27:50;11.70;99.90
18047;DHT22;9148;51.454;13.862;2022-09-09T02:30:18;11.70;99.90
18047;DHT22;9148;51.454;13.862;2022-09-09T02:32:45;11.60;99.90
18047;DHT22;9148;51.454;13.862;2022-09-09T02:35:15;11.60;99.90
18047;DHT22;9148;51.454;13.862;2022-09-09T02:37:45;11.60;99.90
18047;DHT22;9148;51.454;13.862;2022-09-09T02:40:14;11.60;99.90
18047;DHT22;9148;51.454;13.862;2022-09-09T02:42:41;11.60;99.90
18047;DHT22;9148;51.454;13.862;2022-09-09T02:45:10;11.60;99.90
18047;DHT22;9148;51.454;13.862;2022-09-09T02:50:56;11.50;99.90
18047;DHT22;9148;51.454;13.862;2022-09-09T02:53:53;11.50;99.90
18047;DHT22;9148;51.454;13.862;2022-09-09T02:56:27;11.50;99.90
18047;DHT22;9148;51.454;13.862;2022-09-09T02:58:55;11.50;99.90
18047;DHT22;9148;51.454;13.862;2022-09-09T03:01:21;11.50;99.90
18047;DHT22;9148;51.454;13.862;2022-09-09T03:03:47;11.50;99.90
18047;DHT22;9148;51.454;13.862;2022-09-09T03:06:13;11.50;99.90
18047;DHT22;9148;51.454;13.862;2022-09-09T03:08:40;11.50;99.90
18047;DHT22;9148;51.454;13.862;2022-09-09T03:11:06;11.50;99.90
18047;DHT22;9148;51.454;13.862;2022-09-09T03:13:32;11.40;99.90
18047;DHT22;9148;51.454;13.862;2022-09-09T03:15:59;11.40;99.90
18047;DHT22;9148;51.454;13.862;2022-09-09T03:18:25;11.40;99.90
18047;DHT22;9148;51.454;13.862;2022-09-09T03:20:50;11.40;99.90
18047;DHT22;9148;51.454;13.862;2022-09-09T03:23:17;11.30;99.90
18047;DHT22;9148;51.454;13.862;2022-09-09T03:25:52;11.30;99.90
18047;DHT22;9148;51.454;13.862;2022-09-09T03:28:18;11.30;99.90
18047;DHT22;9148;51.454;13.862;2022-09-09T03:30:45;11.30;99.90
18047;DHT22;9148;51.454;13.862;2022-09-09T03:33:11;11.20;99.90
18047;DHT22;9148;51.454;13.862;2022-09-09T03:35:37;11.20;99.90
18047;DHT22;9148;51.454;13.862;2022-09-09T03:38:04;11.20;99.90
18047;DHT22;9148;51.454;13.862;2022-09-09T03:40:30;11.20;99.90
18047;DHT22;9148;51.454;13.862;2022-09-09T03:42:56;11.20;99.90
18047;DHT22;9148;51.454;13.862;2022-09-09T03:45:22;11.20;99.90
18047;DHT22;9148;51.454;13.862;2022-09-09T03:47:47;11.10;99.90
18047;DHT22;9148;51.454;13.862;2022-09-09T03:50:13;11.10;99.90
18047;DHT22;9148;51.454;13.862;2022-09-09T03:52:40;11.10;99.90
18047;DHT22;9148;51.454;13.862;2022-09-09T03:55:07;11.10;99.90
18047;DHT22;9148;51.454;13.862;2022-09-09T03:57:34;11.10;99.90
18047;DHT22;9148;51.454;13.862;2022-09-09T04:00:05;11.10;99.90
18047;DHT22;9148;51.454;13.862;2022-09-09T04:02:32;11.10;99.90
18047;DHT22;9148;51.454;13.862;2022-09-09T04:04:58;11.10;99.90
18047;DHT22;9148;51.454;13.862;2022-09-09T04:07:24;11.00;99.90
18047;DHT22;9148;51.454;13.862;2022-09-09T04:09:52;11.00;99.90
18047;DHT22;9148;51.454;13.862;2022-09-09T04:12:18;11.00;99.90
18047;DHT22;9148;51.454;13.862;2022-09-09T04:14:44;11.00;99.90
18047;DHT22;9148;51.454;13.862;2022-09-09T04:17:10;11.00;99.90
18047;DHT22;9148;51.454;13.862;2022-09-09T04:19:36;11.00;99.90
18047;DHT22;9148;51.454;13.862;2022-09-09T04:22:01;11.00;99.90
18047;DHT22;9148;51.454;13.862;2022-09-09T04:24:27;11.00;99.90
18047;DHT22;9148;51.454;13.862;2022-09-09T04:26:54;11.00;99.90
18047;DHT22;9148;51.454;13.862;2022-09-09T04:29:20;11.10;99.90
18047;DHT22;9148;51.454;13.862;2022-09-09T04:31:46;11.00;99.90
18047;DHT22;9148;51.454;13.862;2022-09-09T04:34:12;11.10;99.90
18047;DHT22;9148;51.454;13.862;2022-09-09T04:36:37;11.10;99.90
18047;DHT22;9148;51.454;13.862;2022-09-09T04:39:04;11.10;99.90
18047;DHT22;9148;51.454;13.862;2022-09-09T04:41:30;11.10;99.90
18047;DHT22;9148;51.454;13.862;2022-09-09T04:43:56;11.10;99.90
18047;DHT22;9148;51.454;13.862;2022-09-09T04:46:22;11.00;99.90
18047;DHT22;9148;51.454;13.862;2022-09-09T04:48:49;11.10;99.90
18047;DHT22;9148;51.454;13.862;2022-09-09T04:51:15;11.10;99.90
18047;DHT22;9148;51.454;13.862;2022-09-09T04:53:41;11.10;99.90
18047;DHT22;9148;51.454;13.862;2022-09-09T04:56:12;11.10;99.90
18047;DHT22;9148;51.454;13.862;2022-09-09T04:58:39;11.10;99.90
18047;DHT22;9148;51.454;13.862;2022-09-09T05:01:13;11.20;99.90
18047;DHT22;9148;51.454;13.862;2022-09-09T05:03:42;11.30;99.90
18047;DHT22;9148;51.454;13.862;2022-09-09T05:06:12;11.40;99.90
18047;DHT22;9148;51.454;13.862;2022-09-09T05:08:41;11.50;99.90
18047;DHT22;9148;51.454;13.862;2022-09-09T05:11:23;11.60;99.90
18047;DHT22;9148;51.454;13.862;2022-09-09T05:13:49;11.60;99.90
18047;DHT22;9148;51.454;13.862;2022-09-09T05:16:16;11.70;99.90
18047;DHT22;9148;51.454;13.862;2022-09-09T05:18:42;11.70;99.90
18047;DHT22;9148;51.454;13.862;2022-09-09T05:21:10;11.80;99.90
18047;DHT22;9148;51.454;13.862;2022-09-09T05:23:36;11.80;99.90
18047;DHT22;9148;51.454;13.862;2022-09-09T05:26:03;11.90;99.90
18047;DHT22;9148;51.454;13.862;2022-09-09T05:28:29;12.00;99.90
18047;DHT22;9148;51.454;13.862;2022-09-09T05:31:05;12.00;99.90
18047;DHT22;9148;51.454;13.862;2022-09-09T05:33:34;12.10;99.90
18047;DHT22;9148;51.454;13.862;2022-09-09T05:36:06;12.20;99.90
18047;DHT22;9148;51.454;13.862;2022-09-09T05:38:34;12.20;99.90
18047;DHT22;9148;51.454;13.862;2022-09-09T05:41:01;12.30;99.90
18047;DHT22;9148;51.454;13.862;2022-09-09T05:43:28;12.40;99.90
18047;DHT22;9148;51.454;13.862;2022-09-09T05:46:05;12.50;99.90
18047;DHT22;9148;51.454;13.862;2022-09-09T05:48:35;12.70;99.90
18047;DHT22;9148;51.454;13.862;2022-09-09T05:51:03;12.80;99.90
18047;DHT22;9148;51.454;13.862;2022-09-09T05:53:30;13.00;99.90
18047;DHT22;9148;51.454;13.862;2022-09-09T05:56:14;13.20;99.90
18047;DHT22;9148;51.454;13.862;2022-09-09T05:58:41;13.40;99.90
18047;DHT22;9148;51.454;13.862;2022-09-09T06:01:14;13.60;99.90
18047;DHT22;9148;51.454;13.862;2022-09-09T06:03:43;13.60;99.90
18047;DHT22;9148;51.454;13.862;2022-09-09T06:06:11;13.70;99.90
18047;DHT22;9148;51.454;13.862;2022-09-09T06:08:49;13.80;99.90
18047;DHT22;9148;51.454;13.862;2022-09-09T06:11:19;14.00;99.90
18047;DHT22;9148;51.454;13.862;2022-09-09T06:13:49;14.10;99.90
18047;DHT22;9148;51.454;13.862;2022-09-09T06:16:22;14.20;99.90
18047;DHT22;9148;51.454;13.862;2022-09-09T06:18:49;14.40;99.90
18047;DHT22;9148;51.454;13.862;2022-09-09T06:23:47;14.80;99.90
18047;DHT22;9148;51.454;13.862;2022-09-09T06:26:18;15.00;99.90
18047;DHT22;9148;51.454;13.862;2022-09-09T06:28:55;15.20;99.90
18047;DHT22;9148;51.454;13.862;2022-09-09T06:31:24;15.40;99.90
18047;DHT22;9148;51.454;13.862;2022-09-09T06:33:53;15.50;99.90
18047;DHT22;9148;51.454;13.862;2022-09-09T06:36:25;15.70;99.90
18047;DHT22;9148;51.454;13.862;2022-09-09T06:38:52;15.90;99.90
18047;DHT22;9148;51.454;13.862;2022-09-09T06:41:20;16.00;99.90
18047;DHT22;9148;51.454;13.862;2022-09-09T06:43:46;16.10;99.90
18047;DHT22;9148;51.454;13.862;2022-09-09T06:46:23;16.20;99.90
18047;DHT22;9148;51.454;13.862;2022-09-09T06:48:56;16.30;99.90
18047;DHT22;9148;51.454;13.862;2022-09-09T06:51:29;16.30;99.90
18047;DHT22;9148;51.454;13.862;2022-09-09T06:53:57;16.40;99.90
18047;DHT22;9148;51.454;13.862;2022-09-09T06:56:28;16.60;99.90
18047;DHT22;9148;51.454;13.862;2022-09-09T06:58:57;16.70;99.90
18047;DHT22;9148;51.454;13.862;2022-09-09T07:01:25;16.90;99.90
18047;DHT22;9148;51.454;13.862;2022-09-09T07:03:55;17.00;99.90
18047;DHT22;9148;51.454;13.862;2022-09-09T07:06:27;17.30;99.90
18047;DHT22;9148;51.454;13.862;2022-09-09T07:08:56;17.60;99.90
18047;DHT22;9148;51.454;13.862;2022-09-09T07:11:26;17.80;99.90
18047;DHT22;9148;51.454;13.862;2022-09-09T07:13:53;18.30;99.90
18047;DHT22;9148;51.454;13.862;2022-09-09T07:16:21;18.40;99.90
18047;DHT22;9148;51.454;13.862;2022-09-09T07:18:50;18.70;99.90
18047;DHT22;9148;51.454;13.862;2022-09-09T07:21:16;19.00;99.90
18047;DHT22;9148;51.454;13.862;2022-09-09T07:23:43;19.30;99.90
18047;DHT22;9148;51.454;13.862;2022-09-09T07:26:13;19.40;99.90
18047;DHT22;9148;51.454;13.862;2022-09-09T07:28:47;19.60;99.90
18047;DHT22;9148;51.454;13.862;2022-09-09T07:31:15;19.90;99.90
18047;DHT22;9148;51.454;13.862;2022-09-09T07:33:43;20.10;99.90
18047;DHT22;9148;51.454;13.862;2022-09-09T07:36:14;20.40;99.90
18047;DHT22;9148;51.454;13.862;2022-09-09T07:38:42;20.50;99.90
18047;DHT22;9148;51.454;13.862;2022-09-09T07:41:12;20.70;99.90
18047;DHT22;9148;51.454;13.862;2022-09-09T07:43:44;20.90;99.90
18047;DHT22;9148;51.454;13.862;2022-09-09T07:46:12;21.20;99.90
18047;DHT22;9148;51.454;13.862;2022-09-09T07:48:47;21.60;99.90
18047;DHT22;9148;51.454;13.862;2022-09-09T07:51:37;21.90;99.90
18047;DHT22;9148;51.454;13.862;2022-09-09T07:54:06;22.10;99.90
18047;DHT22;9148;51.454;13.862;2022-09-09T07:56:34;22.50;99.90
18047;DHT22;9148;51.454;13.862;2022-09-09T07:59:01;22.80;99.90
18047;DHT22;9148;51.454;13.862;2022-09-09T08:01:29;23.00;99.90
18047;DHT22;9148;51.454;13.862;2022-09-09T08:04:02;23.20;99.90
18047;DHT22;9148;51.454;13.862;2022-09-09T08:06:32;23.30;98.30
18047;DHT22;9148;51.454;13.862;2022-09-09T08:08:59;23.30;96.20
18047;DHT22;9148;51.454;13.862;2022-09-09T08:11:27;23.40;95.60
18047;DHT22;9148;51.454;13.862;2022-09-09T08:13:55;23.50;94.50
18047;DHT22;9148;51.454;13.862;2022-09-09T08:16:24;23.50;93.40
18047;DHT22;9148;51.454;13.862;2022-09-09T08:18:52;23.50;91.50
18047;DHT22;9148;51.454;13.862;2022-09-09T08:21:21;23.20;92.10
18047;DHT22;9148;51.454;13.862;2022-09-09T08:23:54;22.70;92.10
18047;DHT22;9148;51.454;13.862;2022-09-09T08:26:23;22.20;93.90
18047;DHT22;9148;51.454;13.862;2022-09-09T08:28:57;21.80;95.60
18047;DHT22;9148;51.454;13.862;2022-09-09T08:31:28;21.70;96.40
18047;DHT22;9148;51.454;13.862;2022-09-09T08:33:59;21.50;96.50
18047;DHT22;9148;51.454;13.862;2022-09-09T08:36:27;21.40;96.90
18047;DHT22;9148;51.454;13.862;2022-09-09T08:38:56;21.30;97.30
18047;DHT22;9148;51.454;13.862;2022-09-09T08:47:23;21.00;98.20
18047;DHT22;9148;51.454;13.862;2022-09-09T08:50:02;20.90;98.60
18047;DHT22;9148;51.454;13.862;2022-09-09T08:58:25;20.80;99.90
18047;DHT22;9148;51.454;13.862;2022-09-09T09:07:47;20.70;99.90
18047;DHT22;9148;51.454;13.862;2022-09-09T09:10:28;20.70;99.90
18047;DHT22;9148;51.454;13.862;2022-09-09T09:12:58;20.90;99.90
18047;DHT22;9148;51.454;13.862;2022-09-09T09:15:26;21.10;99.90
18047;DHT22;9148;51.454;13.862;2022-09-09T09:17:53;21.20;99.90
18047;DHT22;9148;51.454;13.862;2022-09-09T09:20:27;21.30;99.90
18047;DHT22;9148;51.454;13.862;2022-09-09T09:23:04;21.30;99.90
18047;DHT22;9148;51.454;13.862;2022-09-09T09:25:35;21.30;99.90
18047;DHT22;9148;51.454;13.862;2022-09-09T09:28:13;21.40;99.90
18047;DHT22;9148;51.454;13.862;2022-09-09T09:30:52;21.30;99.90
18047;DHT22;9148;51.454;13.862;2022-09-09T09:33:38;21.30;99.90
18047;DHT22;9148;51.454;13.862;2022-09-09T09:36:18;21.30;99.90
18047;DHT22;9148;51.454;13.862;2022-09-09T09:39:01;21.40;99.90
18047;DHT22;9148;51.454;13.862;2022-09-09T09:41:49;21.40;99.90
18047;DHT22;9148;51.454;13.862;2022-09-09T09:44:25;21.50;99.90
18047;DHT22;9148;51.454;13.862;2022-09-09T09:47:04;21.40;99.90
18047;DHT22;9148;51.454;13.862;2022-09-09T09:49:54;21.50;99.90
18047;DHT22;9148;51.454;13.862;2022-09-09T09:52:23;21.20;99.90
18047;DHT22;9148;51.454;13.862;2022-09-09T09:54:51;21.00;99.90
18047;DHT22;9148;51.454;13.862;2022-09-09T09:57:18;20.60;99.90
18047;DHT22;9148;51.454;13.862;2022-09-09T10:02:40;19.90;99.90
18047;DHT22;9148;51.454;13.862;2022-09-09T10:05:19;19.70;99.90
18047;DHT22;9148;51.454;13.862;2022-09-09T10:07:45;19.20;99.90
18047;DHT22;9148;51.454;13.862;2022-09-09T10:10:37;18.90;99.90
18047;DHT22;9148;51.454;13.862;2022-09-09T10:13:47;18.60;99.90
18047;DHT22;9148;51.454;13.862;2022-09-09T10:16:59;18.30;99.90
18047;DHT22;9148;51.454;13.862;2022-09-09T10:19:37;17.90;99.90
18047;DHT22;9148;51.454;13.862;2022-09-09T10:22:26;17.70;99.90
18047;DHT22;9148;51.454;13.862;2022-09-09T10:25:21;17.50;99.90
18047;DHT22;9148;51.454;13.862;2022-09-09T10:31:10;17.30;99.90
18047;DHT22;9148;51.454;13.862;2022-09-09T10:33:57;17.20;99.90
18047;DHT22;9148;51.454;13.862;2022-09-09T10:36:29;17.20;99.90
18047;DHT22;9148;51.454;13.862;2022-09-09T10:39:03;17.20;99.90
18047;DHT22;9148;51.454;13.862;2022-09-09T10:47:35;17.30;99.90
18047;DHT22;9148;51.454;13.862;2022-09-09T10:53:43;17.50;99.90
18047;DHT22;9148;51.454;13.862;2022-09-09T10:56:16;17.70;99.90
18047;DHT22;9148;51.454;13.862;2022-09-09T10:59:00;18.10;99.90
18047;DHT22;9148;51.454;13.862;2022-09-09T11:01:46;18.60;99.90
18047;DHT22;9148;51.454;13.862;2022-09-09T11:04:25;19.00;99.90
18047;DHT22;9148;51.454;13.862;2022-09-09T11:06:58;19.30;99.90
18047;DHT22;9148;51.454;13.862;2022-09-09T11:09:32;19.80;99.90
18047;DHT22;9148;51.454;13.862;2022-09-09T11:12:02;20.30;99.90
18047;DHT22;9148;51.454;13.862;2022-09-09T11:14:36;20.90;99.90
18047;DHT22;9148;51.454;13.862;2022-09-09T11:17:18;21.40;99.90
18047;DHT22;9148;51.454;13.862;2022-09-09T11:19:46;21.80;99.90
18047;DHT22;9148;51.454;13.862;2022-09-09T11:22:31;22.00;99.90
18047;DHT22;9148;51.454;13.862;2022-09-09T11:25:04;22.30;99.90
18047;DHT22;9148;51.454;13.862;2022-09-09T11:28:28;22.60;99.90
18047;DHT22;9148;51.454;13.862;2022-09-09T11:39:53;24.40;99.90
18047;DHT22;9148;51.454;13.862;2022-09-09T11:42:40;24.70;99.00
18047;DHT22;9148;51.454;13.862;2022-09-09T11:45:19;25.00;99.00
18047;DHT22;9148;51.454;13.862;2022-09-09T11:47:56;25.40;98.10
18047;DHT22;9148;51.454;13.862;2022-09-09T11:50:29;25.80;96.20
18047;DHT22;9148;51.454;13.862;2022-09-09T11:53:20;26.10;94.60
18047;DHT22;9148;51.454;13.862;2022-09-09T11:55:59;26.40;94.30
18047;DHT22;9148;51.454;13.862;2022-09-09T11:58:27;26.80;93.70
18047;DHT22;9148;51.454;13.862;2022-09-09T12:00:57;27.20;86.80
18047;DHT22;9148;51.454;13.862;2022-09-09T12:03:41;27.30;84.10
18047;DHT22;9148;51.454;13.862;2022-09-09T12:06:41;27.50;76.00
18047;DHT22;9148;51.454;13.862;2022-09-09T12:09:21;27.40;73.40
18047;DHT22;9148;51.454;13.862;2022-09-09T12:11:53;27.10;68.90
18047;DHT22;9148;51.454;13.862;2022-09-09T12:19:41;25.80;71.80
18047;DHT22;9148;51.454;13.862;2022-09-09T12:22:18;25.60;72.50
18047;DHT22;9148;51.454;13.862;2022-09-09T12:25:03;25.40;72.10
18047;DHT22;9148;51.454;13.862;2022-09-09T12:27:55;25.10;73.50
18047;DHT22;9148;51.454;13.862;2022-09-09T12:30:41;24.90;74.10
18047;DHT22;9148;51.454;13.862;2022-09-09T12:33:17;24.70;74.70
18047;DHT22;9148;51.454;13.862;2022-09-09T12:35:47;24.50;76.60
18047;DHT22;9148;51.454;13.862;2022-09-09T12:38:32;24.40;77.10
18047;DHT22;9148;51.454;13.862;2022-09-09T12:41:01;24.30;78.60
18047;DHT22;9148;51.454;13.862;2022-09-09T12:43:27;24.30;79.90
18047;DHT22;9148;51.454;13.862;2022-09-09T12:45:57;24.30;80.60
18047;DHT22;9148;51.454;13.862;2022-09-09T12:48:36;24.30;81.20
18047;DHT22;9148;51.454;13.862;2022-09-09T12:51:05;24.20;81.20
18047;DHT22;9148;51.454;13.862;2022-09-09T12:53:35;24.10;80.70
18047;DHT22;9148;51.454;13.862;2022-09-09T12:56:04;24.00;80.50
18047;DHT22;9148;51.454;13.862;2022-09-09T12:58:36;23.80;82.90
18047;DHT22;9148;51.454;13.862;2022-09-09T13:01:04;23.40;85.80
18047;DHT22;9148;51.454;13.862;2022-09-09T13:03:32;23.10;90.60
18047;DHT22;9148;51.454;13.862;2022-09-09T13:06:11;22.50;94.90
18047;DHT22;9148;51.454;13.862;2022-09-09T13:08:38;21.50;99.90
18047;DHT22;9148;51.454;13.862;2022-09-09T13:11:09;20.70;99.90
18047;DHT22;9148;51.454;13.862;2022-09-09T13:13:40;20.00;99.90
18047;DHT22;9148;51.454;13.862;2022-09-09T13:16:30;19.60;99.90
18047;DHT22;9148;51.454;13.862;2022-09-09T13:19:09;19.30;99.90
18047;DHT22;9148;51.454;13.862;2022-09-09T13:21:39;19.20;99.90
18047;DHT22;9148;51.454;13.862;2022-09-09T13:24:07;19.20;99.90
18047;DHT22;9148;51.454;13.862;2022-09-09T13:27:03;19.40;99.90
18047;DHT22;9148;51.454;13.862;2022-09-09T13:29:31;19.80;99.90
18047;DHT22;9148;51.454;13.862;2022-09-09T13:32:04;20.10;99.90
18047;DHT22;9148;51.454;13.862;2022-09-09T13:34:34;20.40;99.90
18047;DHT22;9148;51.454;13.862;2022-09-09T13:37:05;20.70;99.90
18047;DHT22;9148;51.454;13.862;2022-09-09T13:39:34;21.00;99.90
18047;DHT22;9148;51.454;13.862;2022-09-09T13:42:02;21.30;99.90
18047;DHT22;9148;51.454;13.862;2022-09-09T13:44:31;21.70;99.90
18047;DHT22;9148;51.454;13.862;2022-09-09T13:49:48;22.30;99.90
18047;DHT22;9148;51.454;13.862;2022-09-09T13:52:16;22.60;99.90
18047;DHT22;9148;51.454;13.862;2022-09-09T13:54:50;22.90;99.90
18047;DHT22;9148;51.454;13.862;2022-09-09T13:57:22;23.30;99.90
18047;DHT22;9148;51.454;13.862;2022-09-09T13:59:51;23.50;99.90
18047;DHT22;9148;51.454;13.862;2022-09-09T14:02:20;23.90;99.90
18047;DHT22;9148;51.454;13.862;2022-09-09T14:04:46;24.30;99.90
18047;DHT22;9148;51.454;13.862;2022-09-09T14:07:17;24.50;99.90
18047;DHT22;9148;51.454;13.862;2022-09-09T14:09:44;24.80;99.90
18047;DHT22;9148;51.454;13.862;2022-09-09T14:12:13;24.90;99.90
18047;DHT22;9148;51.454;13.862;2022-09-09T14:14:40;25.00;99.90
18047;DHT22;9148;51.454;13.862;2022-09-09T14:17:08;25.10;99.90
18047;DHT22;9148;51.454;13.862;2022-09-09T14:19:34;25.20;99.90
18047;DHT22;9148;51.454;13.862;2022-09-09T14:22:00;25.20;98.90
18047;DHT22;9148;51.454;13.862;2022-09-09T14:24:26;25.20;97.70
18047;DHT22;9148;51.454;13.862;2022-09-09T14:26:53;25.20;97.40
18047;DHT22;9148;51.454;13.862;2022-09-09T14:29:19;25.20;98.20
18047;DHT22;9148;51.454;13.862;2022-09-09T14:31:45;25.20;98.80
18047;DHT22;9148;51.454;13.862;2022-09-09T14:34:11;25.20;98.70
18047;DHT22;9148;51.454;13.862;2022-09-09T14:36:39;25.30;98.00
18047;DHT22;9148;51.454;13.862;2022-09-09T14:39:07;25.30;97.20
18047;DHT22;9148;51.454;13.862;2022-09-09T14:41:33;25.30;96.10
18047;DHT22;9148;51.454;13.862;2022-09-09T14:43:58;25.30;95.50
18047;DHT22;9148;51.454;13.862;2022-09-09T14:46:25;25.30;93.00
18047;DHT22;9148;51.454;13.862;2022-09-09T14:48:51;25.30;92.60
18047;DHT22;9148;51.454;13.862;2022-09-09T14:51:22;25.40;93.00
18047;DHT22;9148;51.454;13.862;2022-09-09T14:53:53;25.40;93.40
18047;DHT22;9148;51.454;13.862;2022-09-09T14:56:22;25.60;92.40
18047;DHT22;9148;51.454;13.862;2022-09-09T14:58:49;25.70;91.70
18047;DHT22;9148;51.454;13.862;2022-09-09T15:01:18;25.80;90.30
18047;DHT22;9148;51.454;13.862;2022-09-09T15:03:53;25.90;90.60
18047;DHT22;9148;51.454;13.862;2022-09-09T15:06:25;26.00;89.90
18047;DHT22;9148;51.454;13.862;2022-09-09T15:08:54;26.10;89.50
18047;DHT22;9148;51.454;13.862;2022-09-09T15:11:23;26.20;89.40
18047;DHT22;9148;51.454;13.862;2022-09-09T15:13:51;26.20;85.70
18047;DHT22;9148;51.454;13.862;2022-09-09T15:16:21;26.20;85.30
18047;DHT22;9148;51.454;13.862;2022-09-09T15:18:51;26.20;79.90
18047;DHT22;9148;51.454;13.862;2022-09-09T15:21:21;26.10;78.80
18047;DHT22;9148;51.454;13.862;2022-09-09T15:23:48;26.00;76.40
18047;DHT22;9148;51.454;13.862;2022-09-09T15:26:15;25.90;76.90
18047;DHT22;9148;51.454;13.862;2022-09-09T15:28:42;25.80;78.20
18047;DHT22;9148;51.454;13.862;2022-09-09T15:31:23;25.80;76.60
18047;DHT22;9148;51.454;13.862;2022-09-09T15:33:52;25.60;74.20
18047;DHT22;9148;51.454;13.862;2022-09-09T15:36:23;25.40;75.10
18047;DHT22;9148;51.454;13.862;2022-09-09T15:38:51;25.30;75.80
18047;DHT22;9148;51.454;13.862;2022-09-09T15:41:18;25.10;76.60
18047;DHT22;9148;51.454;13.862;2022-09-09T15:43:46;24.90;77.20
18047;DHT22;9148;51.454;13.862;2022-09-09T15:48:42;24.60;77.60
18047;DHT22;9148;51.454;13.862;2022-09-09T15:51:09;24.40;77.70
18047;DHT22;9148;51.454;13.862;2022-09-09T15:53:36;24.30;78.10
18047;DHT22;9148;51.454;13.862;2022-09-09T15:56:07;24.20;78.50
18047;DHT22;9148;51.454;13.862;2022-09-09T15:58:34;24.00;78.90
18047;DHT22;9148;51.454;13.862;2022-09-09T16:01:05;23.90;79.80
18047;DHT22;9148;51.454;13.862;2022-09-09T16:03:40;23.80;79.90
18047;DHT22;9148;51.454;13.862;2022-09-09T16:06:17;23.70;80.70
18047;DHT22;9148;51.454;13.862;2022-09-09T16:08:45;23.60;82.00
18047;DHT22;9148;51.454;13.862;2022-09-09T16:11:17;23.50;82.50
18047;DHT22;9148;51.454;13.862;2022-09-09T16:13:49;23.40;82.60
18047;DHT22;9148;51.454;13.862;2022-09-09T16:16:18;23.30;82.70
18047;DHT22;9148;51.454;13.862;2022-09-09T16:18:53;23.20;82.80
18047;DHT22;9148;51.454;13.862;2022-09-09T16:21:28;23.10;83.20
18047;DHT22;9148;51.454;13.862;2022-09-09T16:24:18;22.90;84.00
18047;DHT22;9148;51.454;13.862;2022-09-09T16:26:47;22.80;84.60
18047;DHT22;9148;51.454;13.862;2022-09-09T16:29:15;22.70;85.00
18047;DHT22;9148;51.454;13.862;2022-09-09T16:31:43;22.60;85.70
18047;DHT22;9148;51.454;13.862;2022-09-09T16:34:10;22.50;86.30
18047;DHT22;9148;51.454;13.862;2022-09-09T16:36:38;22.40;87.00
18047;DHT22;9148;51.454;13.862;2022-09-09T16:39:08;22.30;87.40
18047;DHT22;9148;51.454;13.862;2022-09-09T16:41:36;22.20;88.10
18047;DHT22;9148;51.454;13.862;2022-09-09T16:44:05;22.20;89.00
18047;DHT22;9148;51.454;13.862;2022-09-09T16:46:35;22.10;89.90
18047;DHT22;9148;51.454;13.862;2022-09-09T16:49:03;22.00;90.10
18047;DHT22;9148;51.454;13.862;2022-09-09T16:51:35;21.90;90.40
18047;DHT22;9148;51.454;13.862;2022-09-09T16:54:07;21.80;90.90
18047;DHT22;9148;51.454;13.862;2022-09-09T16:56:35;21.70;91.20
18047;DHT22;9148;51.454;13.862;2022-09-09T16:59:05;21.60;91.70
18047;DHT22;9148;51.454;13.862;2022-09-09T17:01:35;21.50;92.10
18047;DHT22;9148;51.454;13.862;2022-09-09T17:04:05;21.40;92.30
18047;DHT22;9148;51.454;13.862;2022-09-09T17:06:39;21.30;92.50
18047;DHT22;9148;51.454;13.862;2022-09-09T17:09:07;21.20;92.90
18047;DHT22;9148;51.454;13.862;2022-09-09T17:11:34;21.20;92.70
18047;DHT22;9148;51.454;13.862;2022-09-09T17:14:02;21.10;92.60
18047;DHT22;9148;51.454;13.862;2022-09-09T17:16:30;21.00;92.00
18047;DHT22;9148;51.454;13.862;2022-09-09T17:18:58;20.90;91.90
18047;DHT22;9148;51.454;13.862;2022-09-09T17:21:27;20.80;91.90
18047;DHT22;9148;51.454;13.862;2022-09-09T17:23:55;20.80;92.00
18047;DHT22;9148;51.454;13.862;2022-09-09T17:26:24;20.70;92.30
18047;DHT22;9148;51.454;13.862;2022-09-09T17:28:56;20.70;92.80
18047;DHT22;9148;51.454;13.862;2022-09-09T17:31:24;20.60;93.50
18047;DHT22;9148;51.454;13.862;2022-09-09T17:33:51;20.60;94.30